sensor_id;sensor_type;location;lat;lon;timestamp;pressure;altitude;pressure_sealevel;temperature;humidity
11487;BME280;10510;47.942;9.442;2023-07-31T00:01:36;94768.25;;;12.10;100.00
11487;BME280;10510;47.942;9.442;2023-07-31T00:03:36;94775.50;;;12.08;100.00
11487;BME280;10510;47.942;9.442;2023-07-31T00:05:36;94770.44;;;12.07;100.00
11487;BME280;10510;47.942;9.442;2023-07-31T00:07:36;94770.25;;;12.08;100.00
11487;BME280;10510;47.942;9.442;2023-07-31T00:09:37;94764.84;;;12.10;100.00
11487;BME280;10510;47.942;9.442;2023-07-31T00:11:38;94766.44;;;12.11;100.00
11487;BME280;10510;47.942;9.442;2023-07-31T00:13:38;94758.78;;;12.09;100.00
11487;BME280;10510;47.942;9.442;2023-07-31T00:15:38;94756.34;;;12.08;100.00
11487;BME280;10510;47.942;9.442;2023-07-31T00:17:38;94756.56;;;12.06;100.00
11487;BME280;10510;47.942;9.442;2023-07-31T00:19:39;94755.28;;;12.02;100.00
11487;BME280;10510;47.942;9.442;2023-07-31T00:21:39;94755.63;;;11.92;100.00
11487;BME280;10510;47.942;9.442;2023-07-31T00:23:39;94756.09;;;11.81;100.00
11487;BME280;10510;47.942;9.442;2023-07-31T00:25:39;94758.44;;;11.76;100.00
11487;BME280;10510;47.942;9.442;2023-07-31T00:27:40;94750.00;;;11.74;100.00
11487;BME280;10510;47.942;9.442;2023-07-31T00:29:44;94751.59;;;11.75;100.00
11487;BME280;10510;47.942;9.442;2023-07-31T00:31:44;94754.66;;;11.78;100.00
11487;BME280;10510;47.942;9.442;2023-07-31T00:33:44;94756.28;;;11.79;100.00
11487;BME280;10510;47.942;9.442;2023-07-31T00:35:45;94756.28;;;11.79;100.00
11487;BME280;10510;47.942;9.442;2023-07-31T00:37:45;94754.47;;;11.80;100.00
11487;BME280;10510;47.942;9.442;2023-07-31T00:39:45;94757.09;;;11.80;100.00
11487;BME280;10510;47.942;9.442;2023-07-31T00:41:46;94751.47;;;11.83;100.00
11487;BME280;10510;47.942;9.442;2023-07-31T00:43:46;94756.16;;;11.88;100.00
11487;BME280;10510;47.942;9.442;2023-07-31T00:45:46;94758.88;;;11.94;100.00
11487;BME280;10510;47.942;9.442;2023-07-31T00:47:46;94758.13;;;12.00;100.00
11487;BME280;10510;47.942;9.442;2023-07-31T00:49:47;94758.34;;;12.05;100.00
11487;BME280;10510;47.942;9.442;2023-07-31T00:51:48;94755.34;;;12.09;100.00
11487;BME280;10510;47.942;9.442;2023-07-31T00:53:48;94757.78;;;12.10;100.00
11487;BME280;10510;47.942;9.442;2023-07-31T00:55:49;94759.63;;;12.16;100.00
11487;BME280;10510;47.942;9.442;2023-07-31T00:57:49;94763.09;;;12.23;100.00
11487;BME280;10510;47.942;9.442;2023-07-31T00:59:51;94750.25;;;12.28;100.00
11487;BME280;10510;47.942;9.442;2023-07-31T01:01:52;94754.94;;;12.33;100.00
11487;BME280;10510;47.942;9.442;2023-07-31T01:03:52;94749.31;;;12.36;100.00
11487;BME280;10510;47.942;9.442;2023-07-31T01:06:17;94747.31;;;12.38;100.00
11487;BME280;10510;47.942;9.442;2023-07-31T01:08:49;94744.31;;;12.41;100.00
11487;BME280;10510;47.942;9.442;2023-07-31T01:11:00;94744.09;;;12.43;100.00
11487;BME280;10510;47.942;9.442;2023-07-31T01:13:03;94745.13;;;12.42;100.00
11487;BME280;10510;47.942;9.442;2023-07-31T01:15:08;94744.09;;;12.43;100.00
11487;BME280;10510;47.942;9.442;2023-07-31T01:17:12;94739.88;;;12.42;100.00
11487;BME280;10510;47.942;9.442;2023-07-31T01:19:14;94737.44;;;12.40;100.00
11487;BME280;10510;47.942;9.442;2023-07-31T01:21:42;94736.44;;;12.41;100.00
11487;BME280;10510;47.942;9.442;2023-07-31T01:24:19;94735.63;;;12.41;100.00
11487;BME280;10510;47.942;9.442;2023-07-31T01:26:23;94727.16;;;12.39;100.00
11487;BME280;10510;47.942;9.442;2023-07-31T01:28:32;94727.16;;;12.39;100.00
11487;BME280;10510;47.942;9.442;2023-07-31T01:30:41;94728.72;;;12.33;100.00
11487;BME280;10510;47.942;9.442;2023-07-31T01:32:45;94728.09;;;12.31;100.00
11487;BME280;10510;47.942;9.442;2023-07-31T01:34:48;94729.28;;;12.28;100.00
11487;BME280;10510;47.942;9.442;2023-07-31T01:36:49;94727.84;;;12.26;100.00
11487;BME280;10510;47.942;9.442;2023-07-31T01:38:49;94726.25;;;12.25;100.00
11487;BME280;10510;47.942;9.442;2023-07-31T01:40:53;94721.19;;;12.23;100.00
11487;BME280;10510;47.942;9.442;2023-07-31T01:42:53;94713.13;;;12.18;100.00
11487;BME280;10510;47.942;9.442;2023-07-31T01:44:53;94712.88;;;12.13;100.00
11487;BME280;10510;47.942;9.442;2023-07-31T01:46:54;94715.47;;;12.13;100.00
11487;BME280;10510;47.942;9.442;2023-07-31T01:48:54;94714.47;;;12.14;100.00
11487;BME280;10510;47.942;9.442;2023-07-31T01:50:54;94712.88;;;12.13;100.00
11487;BME280;10510;47.942;9.442;2023-07-31T01:52:54;94717.31;;;12.13;100.00
11487;BME280;10510;47.942;9.442;2023-07-31T01:54:55;94721.34;;;12.15;100.00
11487;BME280;10510;47.942;9.442;2023-07-31T01:56:55;94720.16;;;12.18;100.00
11487;BME280;10510;47.942;9.442;2023-07-31T01:58:55;94718.91;;;12.14;100.00
11487;BME280;10510;47.942;9.442;2023-07-31T02:00:56;94715.06;;;12.10;100.00
11487;BME280;10510;47.942;9.442;2023-07-31T02:02:56;94709.81;;;12.10;100.00
11487;BME280;10510;47.942;9.442;2023-07-31T02:04:56;94698.53;;;12.09;100.00
11487;BME280;10510;47.942;9.442;2023-07-31T02:06:56;94706.00;;;12.12;100.00
11487;BME280;10510;47.942;9.442;2023-07-31T02:08:57;94699.94;;;12.12;100.00
11487;BME280;10510;47.942;9.442;2023-07-31T02:10:57;94697.53;;;12.10;100.00
11487;BME280;10510;47.942;9.442;2023-07-31T02:12:57;94701.34;;;12.08;100.00
11487;BME280;10510;47.942;9.442;2023-07-31T02:14:57;94701.53;;;12.06;100.00
11487;BME280;10510;47.942;9.442;2023-07-31T02:16:58;94697.72;;;12.09;100.00
11487;BME280;10510;47.942;9.442;2023-07-31T02:18:58;94694.69;;;12.12;100.00
11487;BME280;10510;47.942;9.442;2023-07-31T02:20:58;94694.34;;;12.15;100.00
11487;BME280;10510;47.942;9.442;2023-07-31T02:22:58;94696.38;;;12.19;100.00
11487;BME280;10510;47.942;9.442;2023-07-31T02:24:59;94691.56;;;12.23;100.00
11487;BME280;10510;47.942;9.442;2023-07-31T02:26:59;94689.97;;;12.28;100.00
11487;BME280;10510;47.942;9.442;2023-07-31T02:28:59;94690.41;;;12.32;100.00
11487;BME280;10510;47.942;9.442;2023-07-31T02:30:59;94686.41;;;12.36;100.00
11487;BME280;10510;47.942;9.442;2023-07-31T02:33:00;94688.81;;;12.38;100.00
11487;BME280;10510;47.942;9.442;2023-07-31T02:35:00;94683.97;;;12.35;100.00
11487;BME280;10510;47.942;9.442;2023-07-31T02:37:00;94684.31;;;12.25;100.00
11487;BME280;10510;47.942;9.442;2023-07-31T02:39:00;94686.66;;;12.13;100.00
11487;BME280;10510;47.942;9.442;2023-07-31T02:41:01;94687.06;;;12.10;100.00
11487;BME280;10510;47.942;9.442;2023-07-31T02:43:01;94691.28;;;12.11;100.00
11487;BME280;10510;47.942;9.442;2023-07-31T02:45:02;94694.53;;;12.13;100.00
11487;BME280;10510;47.942;9.442;2023-07-31T02:47:02;94681.25;;;12.15;100.00
11487;BME280;10510;47.942;9.442;2023-07-31T02:49:03;94684.28;;;12.18;100.00
11487;BME280;10510;47.942;9.442;2023-07-31T02:51:03;94677.03;;;12.20;100.00
11487;BME280;10510;47.942;9.442;2023-07-31T02:53:03;94684.72;;;12.22;100.00
11487;BME280;10510;47.942;9.442;2023-07-31T02:55:05;94675.03;;;12.22;100.00
11487;BME280;10510;47.942;9.442;2023-07-31T02:57:05;94676.63;;;12.23;100.00
11487;BME280;10510;47.942;9.442;2023-07-31T02:59:06;94677.66;;;12.22;100.00
11487;BME280;10510;47.942;9.442;2023-07-31T03:01:06;94677.47;;;12.24;100.00
11487;BME280;10510;47.942;9.442;2023-07-31T03:03:06;94681.16;;;12.30;100.00
11487;BME280;10510;47.942;9.442;2023-07-31T03:05:07;94684.59;;;12.37;100.00
11487;BME280;10510;47.942;9.442;2023-07-31T03:07:07;94688.44;;;12.41;100.00
11487;BME280;10510;47.942;9.442;2023-07-31T03:09:08;94688.44;;;12.41;100.00
11487;BME280;10510;47.942;9.442;2023-07-31T03:11:08;94690.47;;;12.39;100.00
11487;BME280;10510;47.942;9.442;2023-07-31T03:13:08;94692.88;;;12.40;100.00
11487;BME280;10510;47.942;9.442;2023-07-31T03:15:09;94688.44;;;12.41;100.00
11487;BME280;10510;47.942;9.442;2023-07-31T03:17:09;94686.66;;;12.41;100.00
11487;BME280;10510;47.942;9.442;2023-07-31T03:19:09;94687.06;;;12.45;100.00
11487;BME280;10510;47.942;9.442;2023-07-31T03:21:10;94682.63;;;12.45;100.00
11487;BME280;10510;47.942;9.442;2023-07-31T03:23:10;94686.69;;;12.48;100.00
11487;BME280;10510;47.942;9.442;2023-07-31T03:25:10;94684.28;;;12.53;100.00
11487;BME280;10510;47.942;9.442;2023-07-31T03:27:10;94687.94;;;12.59;100.00
11487;BME280;10510;47.942;9.442;2023-07-31T03:29:11;94681.94;;;12.65;100.00
11487;BME280;10510;47.942;9.442;2023-07-31T03:31:11;94684.97;;;12.68;100.00
11487;BME280;10510;47.942;9.442;2023-07-31T03:33:11;94678.91;;;12.68;100.00
11487;BME280;10510;47.942;9.442;2023-07-31T03:35:12;94675.84;;;12.64;100.00
11487;BME280;10510;47.942;9.442;2023-07-31T03:37:12;94682.13;;;12.63;100.00
11487;BME280;10510;47.942;9.442;2023-07-31T03:39:12;94679.69;;;12.62;100.00
11487;BME280;10510;47.942;9.442;2023-07-31T03:41:13;94681.50;;;12.61;100.00
11487;BME280;10510;47.942;9.442;2023-07-31T03:43:13;94676.63;;;12.58;100.00
11487;BME280;10510;47.942;9.442;2023-07-31T03:45:13;94677.66;;;12.57;100.00
11487;BME280;10510;47.942;9.442;2023-07-31T03:47:14;94675.03;;;12.57;100.00
11487;BME280;10510;47.942;9.442;2023-07-31T03:49:14;94682.50;;;12.60;100.00
11487;BME280;10510;47.942;9.442;2023-07-31T03:51:14;94680.50;;;12.62;100.00
11487;BME280;10510;47.942;9.442;2023-07-31T03:53:16;94672.44;;;12.64;100.00
11487;BME280;10510;47.942;9.442;2023-07-31T03:55:16;94682.91;;;12.64;100.00
11487;BME280;10510;47.942;9.442;2023-07-31T03:57:16;94675.69;;;12.66;100.00
11487;BME280;10510;47.942;9.442;2023-07-31T03:59:17;94680.53;;;12.69;100.00
11487;BME280;10510;47.942;9.442;2023-07-31T04:01:19;94684.56;;;12.71;100.00
11487;BME280;10510;47.942;9.442;2023-07-31T04:03:19;94691.03;;;12.76;100.00
11487;BME280;10510;47.942;9.442;2023-07-31T04:05:20;94682.78;;;12.79;100.00
11487;BME280;10510;47.942;9.442;2023-07-31T04:07:20;94687.84;;;12.80;100.00
11487;BME280;10510;47.942;9.442;2023-07-31T04:09:20;94689.44;;;12.81;100.00
11487;BME280;10510;47.942;9.442;2023-07-31T04:11:20;94695.50;;;12.82;100.00
11487;BME280;10510;47.942;9.442;2023-07-31T04:13:22;94692.28;;;12.80;100.00
11487;BME280;10510;47.942;9.442;2023-07-31T04:15:22;94699.53;;;12.78;100.00
11487;BME280;10510;47.942;9.442;2023-07-31T04:17:22;94691.84;;;12.76;100.00
11487;BME280;10510;47.942;9.442;2023-07-31T04:19:22;94696.09;;;12.77;100.00
11487;BME280;10510;47.942;9.442;2023-07-31T04:21:23;94695.50;;;12.82;100.00
11487;BME280;10510;47.942;9.442;2023-07-31T04:23:24;94693.91;;;12.87;100.00
11487;BME280;10510;47.942;9.442;2023-07-31T04:25:24;94695.34;;;12.90;100.00
11487;BME280;10510;47.942;9.442;2023-07-31T04:27:24;94698.59;;;12.92;100.00
11487;BME280;10510;47.942;9.442;2023-07-31T04:29:25;94698.81;;;12.97;100.00
11487;BME280;10510;47.942;9.442;2023-07-31T04:31:25;94691.53;;;12.99;100.00
11487;BME280;10510;47.942;9.442;2023-07-31T04:33:25;94695.59;;;13.02;100.00
11487;BME280;10510;47.942;9.442;2023-07-31T04:35:25;94702.03;;;13.06;100.00
11487;BME280;10510;47.942;9.442;2023-07-31T04:37:26;94701.06;;;13.07;100.00
11487;BME280;10510;47.942;9.442;2023-07-31T04:39:26;94697.03;;;13.11;100.00
11487;BME280;10510;47.942;9.442;2023-07-31T04:41:26;94691.19;;;13.15;100.00
11487;BME280;10510;47.942;9.442;2023-07-31T04:43:27;94692.63;;;13.18;100.00
11487;BME280;10510;47.942;9.442;2023-07-31T04:45:27;94691.41;;;13.21;100.00
11487;BME280;10510;47.942;9.442;2023-07-31T04:47:27;94690.41;;;13.22;100.00
11487;BME280;10510;47.942;9.442;2023-07-31T04:49:28;94694.44;;;13.24;100.00
11487;BME280;10510;47.942;9.442;2023-07-31T04:51:28;94693.06;;;13.28;100.00
11487;BME280;10510;47.942;9.442;2023-07-31T04:53:28;94685.41;;;13.33;100.00
11487;BME280;10510;47.942;9.442;2023-07-31T04:55:28;94687.25;;;13.39;100.00
11487;BME280;10510;47.942;9.442;2023-07-31T04:57:29;94689.88;;;13.46;100.00
11487;BME280;10510;47.942;9.442;2023-07-31T04:59:29;94690.09;;;13.51;100.00
11487;BME280;10510;47.942;9.442;2023-07-31T05:01:29;94686.47;;;13.59;100.00
11487;BME280;10510;47.942;9.442;2023-07-31T05:03:30;94692.31;;;13.68;100.00
11487;BME280;10510;47.942;9.442;2023-07-31T05:05:30;94692.34;;;13.74;100.00
11487;BME280;10510;47.942;9.442;2023-07-31T05:07:30;94689.72;;;13.81;100.00
11487;BME280;10510;47.942;9.442;2023-07-31T05:09:31;94693.75;;;13.90;100.00
11487;BME280;10510;47.942;9.442;2023-07-31T05:11:31;94681.63;;;13.96;100.00
11487;BME280;10510;47.942;9.442;2023-07-31T05:13:31;94680.63;;;14.03;100.00
11487;BME280;10510;47.942;9.442;2023-07-31T05:15:31;94675.97;;;14.05;100.00
11487;BME280;10510;47.942;9.442;2023-07-31T05:17:32;94679.41;;;14.13;100.00
11487;BME280;10510;47.942;9.442;2023-07-31T05:19:32;94674.75;;;14.21;100.00
11487;BME280;10510;47.942;9.442;2023-07-31T05:21:32;94677.97;;;14.30;100.00
11487;BME280;10510;47.942;9.442;2023-07-31T05:23:32;94682.97;;;14.38;100.00
11487;BME280;10510;47.942;9.442;2023-07-31T05:25:33;94688.25;;;14.51;100.00
11487;BME280;10510;47.942;9.442;2023-07-31T05:27:33;94686.59;;;14.64;100.00
11487;BME280;10510;47.942;9.442;2023-07-31T05:29:34;94691.63;;;14.72;100.00
11487;BME280;10510;47.942;9.442;2023-07-31T05:31:34;94685.94;;;14.82;100.00
11487;BME280;10510;47.942;9.442;2023-07-31T05:33:34;94689.13;;;14.90;100.00
11487;BME280;10510;47.942;9.442;2023-07-31T05:35:34;94687.88;;;14.99;100.00
11487;BME280;10510;47.942;9.442;2023-07-31T05:37:35;94684.22;;;15.07;100.00
11487;BME280;10510;47.942;9.442;2023-07-31T05:39:35;94687.19;;;15.17;100.00
11487;BME280;10510;47.942;9.442;2023-07-31T05:41:35;94695.22;;;15.29;100.00
11487;BME280;10510;47.942;9.442;2023-07-31T05:43:36;94693.38;;;15.36;100.00
11487;BME280;10510;47.942;9.442;2023-07-31T05:45:36;94683.22;;;15.40;100.00
11487;BME280;10510;47.942;9.442;2023-07-31T05:47:37;94676.13;;;15.40;100.00
11487;BME280;10510;47.942;9.442;2023-07-31T05:49:37;94675.81;;;15.30;100.00
11487;BME280;10510;47.942;9.442;2023-07-31T05:51:37;94673.59;;;15.27;100.00
11487;BME280;10510;47.942;9.442;2023-07-31T05:53:37;94673.59;;;15.27;100.00
11487;BME280;10510;47.942;9.442;2023-07-31T05:55:40;94681.25;;;15.29;100.00
11487;BME280;10510;47.942;9.442;2023-07-31T05:57:40;94685.31;;;15.31;100.00
11487;BME280;10510;47.942;9.442;2023-07-31T05:59:41;94669.88;;;15.35;100.00
11487;BME280;10510;47.942;9.442;2023-07-31T06:01:41;94669.69;;;15.36;100.00
11487;BME280;10510;47.942;9.442;2023-07-31T06:03:41;94678.63;;;15.35;100.00
11487;BME280;10510;47.942;9.442;2023-07-31T06:05:42;94679.19;;;15.37;100.00
11487;BME280;10510;47.942;9.442;2023-07-31T06:07:42;94676.94;;;15.41;100.00
11487;BME280;10510;47.942;9.442;2023-07-31T06:09:42;94677.13;;;15.46;100.00
11487;BME280;10510;47.942;9.442;2023-07-31T06:11:43;94677.66;;;15.55;100.00
11487;BME280;10510;47.942;9.442;2023-07-31T06:13:43;94679.03;;;15.64;100.00
11487;BME280;10510;47.942;9.442;2023-07-31T06:15:44;94678.19;;;15.70;100.00
11487;BME280;10510;47.942;9.442;2023-07-31T06:17:45;94676.53;;;15.76;100.00
11487;BME280;10510;47.942;9.442;2023-07-31T06:19:45;94678.31;;;15.82;100.00
11487;BME280;10510;47.942;9.442;2023-07-31T06:21:45;94686.19;;;15.88;100.00
11487;BME280;10510;47.942;9.442;2023-07-31T06:23:46;94684.91;;;15.98;100.00
11487;BME280;10510;47.942;9.442;2023-07-31T06:25:46;94679.66;;;16.16;100.00
11487;BME280;10510;47.942;9.442;2023-07-31T06:27:46;94686.09;;;16.45;100.00
11487;BME280;10510;47.942;9.442;2023-07-31T06:29:47;94678.25;;;16.75;100.00
11487;BME280;10510;47.942;9.442;2023-07-31T06:31:48;94678.78;;;17.02;100.00
11487;BME280;10510;47.942;9.442;2023-07-31T06:33:49;94683.25;;;17.02;100.00
11487;BME280;10510;47.942;9.442;2023-07-31T06:35:49;94679.94;;;16.88;100.00
11487;BME280;10510;47.942;9.442;2023-07-31T06:37:50;94687.41;;;16.79;100.00
11487;BME280;10510;47.942;9.442;2023-07-31T06:39:51;94680.34;;;16.92;100.00
11487;BME280;10510;47.942;9.442;2023-07-31T06:41:51;94673.59;;;16.77;100.00
11487;BME280;10510;47.942;9.442;2023-07-31T06:43:51;94666.97;;;16.68;100.00
11487;BME280;10510;47.942;9.442;2023-07-31T06:45:51;94669.53;;;16.56;100.00
11487;BME280;10510;47.942;9.442;2023-07-31T06:47:52;94671.88;;;16.46;100.00
11487;BME280;10510;47.942;9.442;2023-07-31T06:49:52;94672.59;;;16.35;100.00
11487;BME280;10510;47.942;9.442;2023-07-31T06:51:52;94670.00;;;16.28;100.00
11487;BME280;10510;47.942;9.442;2023-07-31T06:53:53;94676.97;;;16.23;100.00
11487;BME280;10510;47.942;9.442;2023-07-31T06:55:53;94673.97;;;16.19;100.00
11487;BME280;10510;47.942;9.442;2023-07-31T06:57:54;94681.06;;;16.19;100.00
11487;BME280;10510;47.942;9.442;2023-07-31T06:59:55;94672.78;;;16.15;100.00
11487;BME280;10510;47.942;9.442;2023-07-31T07:01:55;94678.19;;;16.20;100.00
11487;BME280;10510;47.942;9.442;2023-07-31T07:03:55;94683.00;;;16.30;100.00
11487;BME280;10510;47.942;9.442;2023-07-31T07:05:56;94684.97;;;16.34;100.00
11487;BME280;10510;47.942;9.442;2023-07-31T07:07:56;94688.50;;;16.47;100.00
11487;BME280;10510;47.942;9.442;2023-07-31T07:09:56;94682.34;;;16.53;100.00
11487;BME280;10510;47.942;9.442;2023-07-31T07:11:56;94680.66;;;16.58;100.00
11487;BME280;10510;47.942;9.442;2023-07-31T07:13:57;94675.69;;;16.69;100.00
11487;BME280;10510;47.942;9.442;2023-07-31T07:15:57;94669.91;;;16.97;100.00
11487;BME280;10510;47.942;9.442;2023-07-31T07:17:57;94673.72;;;17.01;100.00
11487;BME280;10510;47.942;9.442;2023-07-31T07:19:58;94669.59;;;17.05;100.00
11487;BME280;10510;47.942;9.442;2023-07-31T07:21:59;94659.44;;;17.20;100.00
11487;BME280;10510;47.942;9.442;2023-07-31T07:24:01;94655.41;;;17.36;100.00
11487;BME280;10510;47.942;9.442;2023-07-31T07:26:02;94658.44;;;17.52;100.00
11487;BME280;10510;47.942;9.442;2023-07-31T07:28:02;94652.59;;;17.61;100.00
11487;BME280;10510;47.942;9.442;2023-07-31T07:30:03;94646.63;;;17.66;100.00
11487;BME280;10510;47.942;9.442;2023-07-31T07:32:04;94655.56;;;19.63;100.00
11487;BME280;10510;47.942;9.442;2023-07-31T07:34:04;94653.50;;;19.08;100.00
11487;BME280;10510;47.942;9.442;2023-07-31T07:36:05;94665.44;;;18.58;100.00
11487;BME280;10510;47.942;9.442;2023-07-31T07:38:09;94663.34;;;18.72;100.00
11487;BME280;10510;47.942;9.442;2023-07-31T07:40:10;94663.38;;;18.49;100.00
11487;BME280;10510;47.942;9.442;2023-07-31T07:42:10;94665.34;;;18.42;100.00
11487;BME280;10510;47.942;9.442;2023-07-31T07:44:10;94661.84;;;18.65;100.00
11487;BME280;10510;47.942;9.442;2023-07-31T07:46:11;94660.13;;;18.70;100.00
11487;BME280;10510;47.942;9.442;2023-07-31T07:48:11;94669.25;;;18.39;100.00
11487;BME280;10510;47.942;9.442;2023-07-31T07:50:12;94655.69;;;18.24;100.00
11487;BME280;10510;47.942;9.442;2023-07-31T07:52:12;94648.31;;;18.37;100.00
11487;BME280;10510;47.942;9.442;2023-07-31T07:54:12;94658.53;;;18.81;100.00
11487;BME280;10510;47.942;9.442;2023-07-31T07:56:12;94658.25;;;19.06;100.00
11487;BME280;10510;47.942;9.442;2023-07-31T07:58:13;94649.19;;;18.90;100.00
11487;BME280;10510;47.942;9.442;2023-07-31T08:00:13;94655.47;;;20.04;100.00
11487;BME280;10510;47.942;9.442;2023-07-31T08:02:13;94657.16;;;20.10;100.00
11487;BME280;10510;47.942;9.442;2023-07-31T08:04:13;94662.56;;;20.15;100.00
11487;BME280;10510;47.942;9.442;2023-07-31T08:06:14;94645.38;;;20.39;100.00
11487;BME280;10510;47.942;9.442;2023-07-31T08:08:15;94643.81;;;20.77;100.00
11487;BME280;10510;47.942;9.442;2023-07-31T08:10:19;94636.44;;;20.84;100.00
11487;BME280;10510;47.942;9.442;2023-07-31T08:12:19;94632.53;;;20.31;100.00
11487;BME280;10510;47.942;9.442;2023-07-31T08:14:19;94640.91;;;20.23;100.00
11487;BME280;10510;47.942;9.442;2023-07-31T08:16:19;94639.47;;;19.99;100.00
11487;BME280;10510;47.942;9.442;2023-07-31T08:18:20;94643.72;;;19.66;100.00
11487;BME280;10510;47.942;9.442;2023-07-31T08:20:20;94645.09;;;19.85;100.00
11487;BME280;10510;47.942;9.442;2023-07-31T08:22:22;94648.41;;;20.09;100.00
11487;BME280;10510;47.942;9.442;2023-07-31T08:24:22;94660.75;;;20.37;100.00
11487;BME280;10510;47.942;9.442;2023-07-31T08:26:22;94653.28;;;20.34;100.00
11487;BME280;10510;47.942;9.442;2023-07-31T08:28:22;94645.09;;;20.19;100.00
11487;BME280;10510;47.942;9.442;2023-07-31T08:30:23;94647.50;;;20.20;100.00
11487;BME280;10510;47.942;9.442;2023-07-31T08:32:23;94651.81;;;20.43;100.00
11487;BME280;10510;47.942;9.442;2023-07-31T08:34:23;94649.41;;;20.81;100.00
11487;BME280;10510;47.942;9.442;2023-07-31T08:36:24;94654.22;;;21.06;100.00
11487;BME280;10510;47.942;9.442;2023-07-31T08:38:25;94651.09;;;21.09;100.00
11487;BME280;10510;47.942;9.442;2023-07-31T08:40:25;94650.97;;;21.21;100.00
11487;BME280;10510;47.942;9.442;2023-07-31T08:42:27;94634.81;;;21.27;100.00
11487;BME280;10510;47.942;9.442;2023-07-31T08:44:27;94637.16;;;21.46;100.00
11487;BME280;10510;47.942;9.442;2023-07-31T08:46:28;94633.72;;;22.10;100.00
11487;BME280;10510;47.942;9.442;2023-07-31T08:48:29;94625.06;;;22.25;100.00
11487;BME280;10510;47.942;9.442;2023-07-31T08:50:29;94625.75;;;21.77;100.00
11487;BME280;10510;47.942;9.442;2023-07-31T08:52:30;94623.91;;;21.51;100.00
11487;BME280;10510;47.942;9.442;2023-07-31T08:54:30;94619.88;;;21.75;100.00
11487;BME280;10510;47.942;9.442;2023-07-31T08:56:33;94629.16;;;22.05;100.00
11487;BME280;10510;47.942;9.442;2023-07-31T08:58:34;94627.31;;;22.43;100.00
11487;BME280;10510;47.942;9.442;2023-07-31T09:00:36;94620.81;;;22.71;100.00
11487;BME280;10510;47.942;9.442;2023-07-31T09:02:54;94615.53;;;22.81;100.00
11487;BME280;10510;47.942;9.442;2023-07-31T09:04:55;94616.38;;;22.92;100.00
11487;BME280;10510;47.942;9.442;2023-07-31T09:07:00;94611.53;;;22.84;100.00
11487;BME280;10510;47.942;9.442;2023-07-31T09:09:01;94611.09;;;23.02;100.00
11487;BME280;10510;47.942;9.442;2023-07-31T09:11:02;94597.56;;;23.09;100.00
11487;BME280;10510;47.942;9.442;2023-07-31T09:13:06;94603.41;;;23.11;100.00
11487;BME280;10510;47.942;9.442;2023-07-31T09:15:07;94594.41;;;23.38;100.00
11487;BME280;10510;47.942;9.442;2023-07-31T09:17:08;94595.72;;;23.35;100.00
11487;BME280;10510;47.942;9.442;2023-07-31T09:19:08;94595.75;;;23.55;100.00
11487;BME280;10510;47.942;9.442;2023-07-31T09:21:08;94598.47;;;23.96;100.00
11487;BME280;10510;47.942;9.442;2023-07-31T09:23:13;94593.34;;;24.41;100.00
11487;BME280;10510;47.942;9.442;2023-07-31T09:25:17;94595.13;;;24.76;100.00
11487;BME280;10510;47.942;9.442;2023-07-31T09:27:18;94594.56;;;24.79;100.00
11487;BME280;10510;47.942;9.442;2023-07-31T09:29:19;94594.13;;;24.57;100.00
11487;BME280;10510;47.942;9.442;2023-07-31T09:31:38;94595.19;;;24.66;100.00
11487;BME280;10510;47.942;9.442;2023-07-31T09:33:54;94589.00;;;24.76;100.00
11487;BME280;10510;47.942;9.442;2023-07-31T09:35:55;94590.91;;;24.65;100.00
11487;BME280;10510;47.942;9.442;2023-07-31T09:37:58;94589.53;;;24.73;100.00
11487;BME280;10510;47.942;9.442;2023-07-31T09:39:58;94589.78;;;24.76;100.00
11487;BME280;10510;47.942;9.442;2023-07-31T09:41:59;94590.44;;;24.42;100.00
11487;BME280;10510;47.942;9.442;2023-07-31T09:44:00;94592.31;;;24.11;100.00
11487;BME280;10510;47.942;9.442;2023-07-31T09:46:00;94590.16;;;23.42;100.00
11487;BME280;10510;47.942;9.442;2023-07-31T09:48:00;94582.91;;;23.22;100.00
11487;BME280;10510;47.942;9.442;2023-07-31T09:50:00;94582.75;;;22.81;100.00
11487;BME280;10510;47.942;9.442;2023-07-31T09:52:01;94574.47;;;22.72;100.00
11487;BME280;10510;47.942;9.442;2023-07-31T09:54:01;94579.16;;;22.50;100.00
11487;BME280;10510;47.942;9.442;2023-07-31T09:56:01;94587.66;;;22.47;100.00
11487;BME280;10510;47.942;9.442;2023-07-31T09:58:06;94580.09;;;22.81;100.00
11487;BME280;10510;47.942;9.442;2023-07-31T10:00:07;94579.72;;;23.25;100.00
11487;BME280;10510;47.942;9.442;2023-07-31T10:02:15;94577.63;;;23.52;100.00
11487;BME280;10510;47.942;9.442;2023-07-31T10:04:17;94574.97;;;23.47;100.00
11487;BME280;10510;47.942;9.442;2023-07-31T10:06:20;94571.72;;;23.25;100.00
11487;BME280;10510;47.942;9.442;2023-07-31T10:08:27;94572.63;;;22.78;100.00
11487;BME280;10510;47.942;9.442;2023-07-31T10:10:30;94571.63;;;22.31;100.00
11487;BME280;10510;47.942;9.442;2023-07-31T10:12:32;94575.72;;;22.12;100.00
11487;BME280;10510;47.942;9.442;2023-07-31T10:14:33;94571.22;;;22.12;100.00
11487;BME280;10510;47.942;9.442;2023-07-31T10:16:34;94564.28;;;22.11;100.00
11487;BME280;10510;47.942;9.442;2023-07-31T10:18:36;94549.06;;;22.49;100.00
11487;BME280;10510;47.942;9.442;2023-07-31T10:20:36;94543.03;;;22.69;100.00
11487;BME280;10510;47.942;9.442;2023-07-31T10:22:38;94541.22;;;22.85;100.00
11487;BME280;10510;47.942;9.442;2023-07-31T10:24:39;94542.09;;;23.06;100.00
11487;BME280;10510;47.942;9.442;2023-07-31T10:26:41;94545.88;;;23.15;100.00
11487;BME280;10510;47.942;9.442;2023-07-31T10:28:46;94535.50;;;23.24;100.00
11487;BME280;10510;47.942;9.442;2023-07-31T10:30:47;94529.63;;;23.37;100.00
11487;BME280;10510;47.942;9.442;2023-07-31T10:32:49;94526.69;;;23.64;100.00
11487;BME280;10510;47.942;9.442;2023-07-31T10:34:51;94517.88;;;23.58;100.00